createdAt,value
2018-09-08T00:02:05.575Z,2.70
2018-09-08T00:04:33.129Z,1.70
2018-09-08T00:07:06.426Z,2.45
2018-09-08T00:09:34.315Z,2.20
2018-09-08T00:12:01.896Z,2.75
2018-09-08T00:14:29.345Z,3.20
2018-09-08T00:17:02.727Z,3.60
2018-09-08T00:19:35.939Z,3.15
2018-09-08T00:22:09.128Z,3.30
2018-09-08T00:24:42.409Z,3.35
2018-09-08T00:27:09.588Z,3.50
2018-09-08T00:29:43.085Z,3.90
2018-09-08T00:32:12.621Z,3.90
2018-09-08T00:34:40.570Z,3.35
2018-09-08T00:37:08.667Z,3.80
2018-09-08T00:39:36.274Z,3.65
2018-09-08T00:42:04.238Z,3.77
2018-09-08T00:44:31.839Z,4.00
2018-09-08T00:46:59.531Z,4.17
2018-09-08T00:49:27.061Z,3.62
2018-09-08T00:51:54.703Z,3.67
2018-09-08T00:54:22.328Z,4.40
2018-09-08T00:56:50.023Z,3.60
2018-09-08T00:59:17.560Z,3.90
2018-09-08T01:01:45.201Z,4.00
2018-09-08T01:04:12.821Z,3.83
2018-09-08T01:06:40.957Z,4.25
2018-09-08T01:09:08.762Z,4.10
2018-09-08T01:11:36.388Z,4.25
2018-09-08T01:14:04.305Z,4.10
2018-09-08T01:16:31.847Z,3.67
2018-09-08T01:19:00.222Z,4.45
2018-09-08T01:21:30.564Z,4.00
2018-09-08T01:23:59.137Z,4.03
2018-09-08T01:26:26.915Z,4.37
2018-09-08T01:28:54.615Z,4.03
2018-09-08T01:31:22.386Z,3.60
2018-09-08T01:33:50.230Z,4.40
2018-09-08T01:36:17.828Z,4.75
2018-09-08T01:38:45.705Z,4.83
2018-09-08T01:41:13.377Z,4.08
2018-09-08T01:43:40.935Z,4.60
2018-09-08T01:46:09.240Z,4.50
2018-09-08T01:48:37.282Z,4.50
2018-09-08T01:51:05.031Z,4.83
2018-09-08T01:53:33.404Z,4.78
2018-09-08T01:56:00.996Z,4.75
2018-09-08T01:58:28.912Z,5.15
2018-09-08T02:00:56.541Z,5.55
2018-09-08T02:03:24.169Z,5.17
2018-09-08T02:05:52.059Z,4.75
2018-09-08T02:08:19.740Z,5.12
2018-09-08T02:10:47.830Z,4.70
2018-09-08T02:13:15.434Z,5.75
2018-09-08T02:15:43.197Z,5.97
2018-09-08T02:18:11.536Z,5.10
2018-09-08T02:20:39.239Z,4.95
2018-09-08T02:23:06.907Z,5.45
2018-09-08T02:25:34.557Z,4.65
2018-09-08T02:28:02.238Z,4.78
2018-09-08T02:30:29.778Z,5.05
2018-09-08T02:32:58.488Z,5.58
2018-09-08T02:35:26.109Z,4.85
2018-09-08T02:37:53.745Z,5.58
2018-09-08T02:40:21.569Z,5.58
2018-09-08T02:42:49.867Z,5.10
2018-09-08T02:45:17.493Z,6.87
2018-09-08T02:47:45.126Z,5.08
2018-09-08T02:50:34.091Z,5.95
2018-09-08T02:53:01.100Z,5.90
2018-09-08T02:55:28.076Z,6.30
2018-09-08T02:57:54.964Z,5.72
2018-09-08T03:00:21.393Z,5.87
2018-09-08T03:02:47.807Z,5.78
2018-09-08T03:05:14.396Z,7.00
2018-09-08T03:07:40.848Z,7.83
2018-09-08T03:10:07.286Z,6.12
2018-09-08T03:12:33.719Z,6.37
2018-09-08T03:15:00.190Z,7.08
2018-09-08T03:17:26.645Z,6.50
2018-09-08T03:19:53.191Z,6.10
2018-09-08T03:22:19.763Z,6.75
2018-09-08T03:24:46.306Z,7.75
2018-09-08T03:27:12.761Z,7.00
2018-09-08T03:29:39.211Z,6.33
2018-09-08T03:32:05.627Z,7.65
2018-09-08T03:34:32.089Z,6.10
2018-09-08T03:36:58.674Z,6.00
2018-09-08T03:39:25.144Z,5.92
2018-09-08T03:41:51.600Z,6.75
2018-09-08T03:44:18.682Z,5.90
2018-09-08T03:46:45.124Z,6.75
2018-09-08T03:49:11.599Z,6.08
2018-09-08T03:51:38.483Z,6.58
2018-09-08T03:54:04.987Z,5.50
2018-09-08T03:56:31.485Z,6.12
2018-09-08T03:58:57.939Z,6.62
2018-09-08T04:01:24.533Z,5.62
2018-09-08T04:03:52.200Z,6.08
2018-09-08T04:06:19.961Z,6.20
2018-09-08T04:08:47.579Z,4.90
2018-09-08T04:11:15.274Z,5.75
2018-09-08T04:13:43.193Z,5.87
2018-09-08T04:16:11.427Z,5.85
2018-09-08T04:18:39.072Z,6.87
2018-09-08T04:21:06.658Z,6.50
2018-09-08T04:23:34.572Z,5.95
2018-09-08T04:26:02.459Z,6.85
2018-09-08T04:28:30.617Z,6.03
2018-09-08T04:30:58.946Z,7.28
2018-09-08T04:33:26.532Z,6.85
2018-09-08T04:35:54.111Z,7.50
2018-09-08T04:38:21.862Z,8.48
2018-09-08T04:40:49.475Z,8.65
2018-09-08T04:43:17.026Z,7.87
2018-09-08T04:45:44.659Z,7.97
2018-09-08T04:48:12.400Z,7.55
2018-09-08T04:50:39.948Z,8.18
2018-09-08T04:53:07.907Z,7.35
2018-09-08T04:55:36.517Z,8.98
2018-09-08T04:58:04.688Z,9.38
2018-09-08T05:00:32.232Z,8.78
2018-09-08T05:03:00.219Z,8.68
2018-09-08T05:05:28.611Z,10.25
2018-09-08T05:07:56.196Z,10.25
2018-09-08T05:10:23.744Z,10.55
2018-09-08T05:12:51.399Z,11.10
2018-09-08T05:15:19.075Z,11.18
2018-09-08T05:17:46.846Z,10.40
2018-09-08T05:20:14.336Z,9.90
2018-09-08T05:22:41.951Z,10.08
2018-09-08T05:25:09.538Z,9.85
2018-09-08T05:27:37.084Z,9.43
2018-09-08T05:30:05.252Z,9.10
2018-09-08T05:32:33.024Z,10.08
2018-09-08T05:35:00.868Z,9.03
2018-09-08T05:37:28.431Z,10.40
2018-09-08T05:39:56.000Z,9.50
2018-09-08T05:42:23.869Z,10.10
2018-09-08T05:44:51.480Z,10.08
2018-09-08T05:47:19.017Z,11.93
2018-09-08T05:49:46.596Z,10.18
2018-09-08T05:52:14.231Z,9.03
2018-09-08T05:54:41.865Z,10.30
2018-09-08T05:57:09.453Z,9.50
2018-09-08T05:59:37.169Z,10.58
2018-09-08T06:02:05.220Z,8.43
2018-09-08T06:04:32.906Z,8.83
2018-09-08T06:07:05.972Z,7.67
2018-09-08T06:09:34.558Z,8.50
2018-09-08T06:12:02.122Z,7.62
2018-09-08T06:14:31.116Z,7.85
2018-09-08T06:16:59.041Z,8.30
2018-09-08T06:19:26.863Z,9.55
2018-09-08T06:21:54.748Z,8.55
2018-09-08T06:24:22.322Z,7.58
2018-09-08T06:26:50.148Z,8.50
2018-09-08T06:29:18.112Z,9.33
2018-09-08T06:31:46.211Z,8.90
2018-09-08T06:34:14.175Z,8.75
2018-09-08T06:36:42.074Z,9.60
2018-09-08T06:39:11.829Z,8.88
2018-09-08T06:41:39.567Z,9.33
2018-09-08T06:44:07.497Z,8.90
2018-09-08T06:46:35.407Z,8.70
2018-09-08T06:49:03.709Z,8.13
2018-09-08T06:51:31.645Z,8.10
2018-09-08T06:53:59.229Z,7.67
2018-09-08T06:56:26.869Z,8.20
2018-09-08T06:58:56.033Z,8.55
2018-09-08T07:01:24.318Z,8.25
2018-09-08T07:03:52.291Z,7.65
2018-09-08T07:06:20.107Z,7.42
2018-09-08T07:08:47.718Z,6.80
2018-09-08T07:11:15.481Z,7.03
2018-09-08T07:13:43.321Z,7.72
2018-09-08T07:16:11.529Z,8.33
2018-09-08T07:18:39.252Z,6.83
2018-09-08T07:21:07.059Z,7.03
2018-09-08T07:23:34.679Z,6.90
2018-09-08T07:26:02.955Z,7.65
2018-09-08T07:28:31.951Z,7.28
2018-09-08T07:30:59.724Z,5.62
2018-09-08T07:33:28.104Z,5.12
2018-09-08T07:35:56.011Z,5.50
2018-09-08T07:38:24.176Z,5.30
2018-09-08T07:40:52.205Z,5.33
2018-09-08T07:43:20.125Z,3.90
2018-09-08T07:45:48.474Z,6.37
2018-09-08T07:48:16.857Z,4.80
2018-09-08T07:50:45.125Z,5.95
2018-09-08T07:53:12.952Z,6.30
2018-09-08T07:55:40.654Z,6.47
2018-09-08T07:58:08.454Z,5.87
2018-09-08T08:00:36.217Z,5.50
2018-09-08T08:03:04.088Z,5.30
2018-09-08T08:05:31.846Z,4.30
2018-09-08T08:07:59.558Z,5.33
2018-09-08T08:10:27.382Z,4.85
2018-09-08T08:12:57.075Z,4.42
2018-09-08T08:15:24.828Z,4.30
2018-09-08T08:17:52.516Z,4.15
2018-09-08T08:20:20.332Z,4.87
2018-09-08T08:22:48.104Z,4.45
2018-09-08T08:25:15.852Z,4.73
2018-09-08T08:27:43.510Z,3.87
2018-09-08T08:30:11.174Z,5.00
2018-09-08T08:32:38.757Z,3.87
2018-09-08T08:35:06.551Z,3.70
2018-09-08T08:37:34.286Z,7.30
2018-09-08T08:40:02.089Z,2.98
2018-09-08T08:42:29.770Z,2.57
2018-09-08T08:44:57.640Z,3.50
2018-09-08T08:47:26.518Z,2.80
2018-09-08T08:50:05.513Z,2.37
2018-09-08T08:52:44.592Z,1.63
2018-09-08T08:55:12.665Z,1.50
2018-09-08T08:57:40.345Z,1.90
2018-09-08T09:00:08.048Z,1.30
2018-09-08T09:02:35.742Z,1.47
2018-09-08T09:05:03.715Z,2.17
2018-09-08T09:07:31.536Z,2.10
2018-09-08T09:10:06.239Z,1.40
2018-09-08T09:12:34.282Z,1.20
2018-09-08T09:15:02.599Z,1.17
2018-09-08T09:17:30.152Z,1.40
2018-09-08T09:20:09.149Z,1.57
2018-09-08T09:22:48.220Z,1.20
2018-09-08T09:25:15.987Z,1.20
2018-09-08T09:27:47.970Z,1.20
2018-09-08T09:30:16.395Z,1.57
2018-09-08T09:32:44.201Z,1.50
2018-09-08T09:35:18.196Z,1.20
2018-09-08T09:37:45.864Z,1.30
2018-09-08T09:40:14.835Z,1.20
2018-09-08T09:42:42.486Z,1.00
2018-09-08T09:45:10.943Z,1.23
2018-09-08T09:47:38.772Z,1.60
2018-09-08T09:50:07.863Z,1.20
2018-09-08T09:52:35.698Z,6.87
2018-09-08T09:55:03.451Z,1.63
2018-09-08T09:57:31.236Z,2.53
2018-09-08T09:59:59.000Z,2.17
2018-09-08T10:02:43.339Z,4.87
2018-09-08T10:05:12.829Z,1.20
2018-09-08T10:07:40.617Z,1.17
2018-09-08T10:10:10.387Z,1.57
2018-09-08T10:12:38.679Z,2.07
2018-09-08T10:15:07.345Z,1.60
2018-09-08T10:17:35.555Z,1.20
2018-09-08T10:20:03.386Z,1.30
2018-09-08T10:22:31.090Z,1.37
2018-09-08T10:24:58.739Z,1.40
2018-09-08T10:27:26.441Z,1.10
2018-09-08T10:29:54.531Z,0.80
2018-09-08T10:32:22.388Z,1.00
2018-09-08T10:34:50.333Z,1.17
2018-09-08T10:37:18.052Z,0.87
2018-09-08T10:39:45.947Z,1.00
2018-09-08T10:42:13.757Z,1.10
2018-09-08T10:44:41.540Z,0.87
2018-09-08T10:47:09.775Z,1.00
2018-09-08T10:49:37.469Z,1.00
2018-09-08T10:53:12.935Z,1.00
2018-09-08T10:55:40.699Z,1.10
2018-09-08T10:58:08.649Z,7.23
2018-09-08T11:00:37.147Z,1.53
2018-09-08T11:03:04.791Z,1.87
2018-09-08T11:05:32.480Z,1.07
2018-09-08T11:08:00.161Z,1.00
2018-09-08T11:10:27.982Z,1.03
2018-09-08T11:12:56.091Z,1.23
2018-09-08T11:15:24.000Z,1.43
2018-09-08T11:17:51.884Z,1.27
2018-09-08T11:20:19.612Z,1.07
2018-09-08T11:22:47.395Z,1.23
2018-09-08T11:25:15.494Z,1.33
2018-09-08T11:27:43.885Z,1.20
2018-09-08T11:30:11.878Z,1.20
2018-09-08T11:32:39.803Z,0.90
2018-09-08T11:35:07.950Z,1.27
2018-09-08T11:37:35.956Z,1.23
2018-09-08T11:40:03.793Z,2.10
2018-09-08T11:42:31.483Z,1.00
2018-09-08T11:45:00.385Z,2.07
2018-09-08T11:47:28.962Z,1.60
2018-09-08T11:49:56.906Z,1.30
2018-09-08T11:52:24.686Z,1.53
2018-09-08T11:54:52.529Z,1.60
2018-09-08T11:57:20.233Z,2.13
2018-09-08T11:59:47.956Z,2.20
2018-09-08T12:02:15.928Z,1.70
2018-09-08T12:04:43.605Z,1.60
2018-09-08T12:07:11.278Z,1.57
2018-09-08T12:09:39.129Z,1.53
2018-09-08T12:12:06.881Z,1.47
2018-09-08T12:14:35.258Z,1.30
2018-09-08T12:17:03.350Z,1.20
2018-09-08T12:19:31.524Z,2.80
2018-09-08T12:21:59.231Z,2.73
2018-09-08T12:24:26.941Z,1.30
2018-09-08T12:26:54.663Z,1.50
2018-09-08T12:29:22.347Z,1.20
2018-09-08T12:31:50.117Z,1.10
2018-09-08T12:34:18.189Z,1.00
2018-09-08T12:36:45.829Z,1.37
2018-09-08T12:39:13.482Z,1.20
2018-09-08T12:41:41.323Z,0.87
2018-09-08T12:44:09.161Z,0.80
2018-09-08T12:46:37.515Z,1.20
2018-09-08T12:49:05.155Z,1.10
2018-09-08T12:51:32.914Z,1.23
2018-09-08T12:54:01.216Z,1.20
2018-09-08T12:56:28.934Z,1.10
2018-09-08T12:58:56.922Z,0.90
2018-09-08T13:01:25.227Z,0.80
2018-09-08T13:03:52.946Z,0.90
2018-09-08T13:06:20.741Z,1.07
2018-09-08T13:08:49.021Z,2.77
2018-09-08T13:11:16.786Z,1.17
2018-09-08T13:13:44.868Z,1.07
2018-09-08T13:16:12.599Z,1.03
2018-09-08T13:18:40.452Z,0.83
2018-09-08T13:21:08.133Z,0.90
2018-09-08T13:23:36.005Z,0.80
2018-09-08T13:26:03.650Z,0.97
2018-09-08T13:28:31.456Z,1.00
2018-09-08T13:30:59.554Z,0.90
2018-09-08T13:33:27.603Z,1.20
2018-09-08T13:35:55.374Z,0.93
2018-09-08T13:38:23.155Z,0.70
2018-09-08T13:40:50.897Z,1.17
2018-09-08T13:43:18.941Z,1.00
2018-09-08T13:45:46.677Z,0.90
2018-09-08T13:48:14.389Z,1.83
2018-09-08T13:50:48.904Z,0.87
2018-09-08T13:53:16.557Z,0.70
2018-09-08T13:55:44.296Z,0.90
2018-09-08T13:58:11.926Z,0.70
2018-09-08T14:00:40.261Z,0.73
2018-09-08T14:03:09.394Z,0.70
2018-09-08T14:05:37.191Z,1.00
2018-09-08T14:08:07.838Z,0.80
2018-09-08T14:10:35.564Z,0.80
2018-09-08T14:13:03.248Z,0.73
2018-09-08T14:15:30.981Z,0.70
2018-09-08T14:17:58.614Z,1.00
2018-09-08T14:20:26.691Z,0.80
2018-09-08T14:22:54.470Z,0.70
2018-09-08T14:25:22.229Z,0.83
2018-09-08T14:27:50.583Z,0.80
2018-09-08T14:30:18.338Z,1.10
2018-09-08T14:32:46.114Z,0.90
2018-09-08T14:35:13.962Z,0.93
2018-09-08T14:37:41.624Z,0.90
2018-09-08T14:40:09.396Z,0.70
2018-09-08T14:42:37.687Z,0.80
2018-09-08T14:45:05.564Z,0.80
2018-09-08T14:47:33.440Z,0.80
2018-09-08T14:50:02.027Z,0.90
2018-09-08T14:52:30.140Z,0.80
2018-09-08T14:54:57.847Z,7.93
2018-09-08T14:57:25.461Z,11.93
2018-09-08T14:59:53.356Z,1.23
2018-09-08T15:02:21.292Z,0.87
2018-09-08T15:04:49.327Z,0.80
2018-09-08T15:07:16.928Z,1.30
2018-09-08T15:09:45.902Z,0.80
2018-09-08T15:12:13.660Z,1.00
2018-09-08T15:14:41.337Z,0.70
2018-09-08T15:17:09.102Z,0.80
2018-09-08T15:19:37.601Z,0.80
2018-09-08T15:22:05.405Z,1.13
2018-09-08T15:24:33.116Z,0.80
2018-09-08T15:27:02.269Z,0.70
2018-09-08T15:29:30.324Z,1.17
2018-09-08T15:31:58.519Z,1.00
2018-09-08T15:34:26.272Z,0.90
2018-09-08T15:36:54.024Z,0.90
2018-09-08T15:39:21.685Z,0.90
2018-09-08T15:41:49.397Z,1.50
2018-09-08T15:44:17.538Z,1.17
2018-09-08T15:46:45.932Z,0.83
2018-09-08T15:49:13.679Z,0.93
2018-09-08T15:51:41.624Z,0.70
2018-09-08T15:54:09.405Z,0.77
2018-09-08T15:56:37.320Z,0.80
2018-09-08T15:59:04.920Z,0.80
2018-09-08T16:01:32.633Z,1.00
2018-09-08T16:04:00.606Z,0.70
2018-09-08T16:06:28.774Z,0.90
2018-09-08T16:08:57.793Z,0.80
2018-09-08T16:11:25.522Z,0.80
2018-09-08T16:13:53.404Z,0.80
2018-09-08T16:16:21.465Z,0.70
2018-09-08T16:18:49.481Z,0.73
2018-09-08T16:21:17.629Z,0.70
2018-09-08T16:23:45.453Z,0.63
2018-09-08T16:26:13.117Z,0.90
2018-09-08T16:28:41.087Z,0.70
2018-09-08T16:31:08.977Z,1.30
2018-09-08T16:33:36.701Z,0.70
2018-09-08T16:36:04.468Z,0.90
2018-09-08T16:38:32.472Z,1.13
2018-09-08T16:41:00.212Z,1.53
2018-09-08T16:43:27.971Z,0.70
2018-09-08T16:45:56.245Z,0.93
2018-09-08T16:48:24.364Z,1.00
2018-09-08T16:50:52.047Z,1.20
2018-09-08T16:53:20.402Z,0.80
2018-09-08T16:55:48.419Z,0.83
2018-09-08T16:58:16.748Z,1.00
2018-09-08T17:00:44.603Z,0.93
2018-09-08T17:03:12.529Z,0.80
2018-09-08T17:05:41.218Z,0.80
2018-09-08T17:08:13.971Z,0.70
2018-09-08T17:10:41.882Z,0.90
2018-09-08T17:13:09.798Z,0.70
2018-09-08T17:15:37.488Z,0.80
2018-09-08T17:18:05.487Z,0.70
2018-09-08T17:20:33.217Z,0.80
2018-09-08T17:23:01.141Z,0.87
2018-09-08T17:25:28.914Z,0.80
2018-09-08T17:27:56.625Z,0.70
2018-09-08T17:30:24.389Z,0.90
2018-09-08T17:32:52.792Z,1.30
2018-09-08T17:35:20.533Z,0.90
2018-09-08T17:37:48.256Z,1.20
2018-09-08T17:40:16.022Z,1.33
2018-09-08T17:42:43.782Z,1.00
2018-09-08T17:45:11.845Z,1.20
2018-09-08T17:47:39.560Z,1.73
2018-09-08T17:50:07.552Z,1.60
2018-09-08T17:52:35.440Z,1.73
2018-09-08T17:55:03.337Z,1.70
2018-09-08T17:57:31.212Z,3.43
2018-09-08T17:59:59.049Z,2.50
2018-09-08T18:02:26.671Z,1.47
2018-09-08T18:04:55.094Z,3.10
2018-09-08T18:07:22.861Z,3.00
2018-09-08T18:09:50.547Z,1.80
2018-09-08T18:12:18.381Z,1.70
2018-09-08T18:14:46.113Z,1.50
2018-09-08T18:17:13.859Z,1.13
2018-09-08T18:19:41.643Z,1.33
2018-09-08T18:22:09.585Z,1.40
2018-09-08T18:24:37.369Z,1.40
2018-09-08T18:27:05.303Z,2.77
2018-09-08T18:29:33.217Z,1.40
2018-09-08T18:32:01.011Z,0.90
2018-09-08T18:34:28.664Z,1.33
2018-09-08T18:36:56.511Z,1.90
2018-09-08T18:39:24.527Z,1.43
2018-09-08T18:41:52.252Z,1.30
2018-09-08T18:44:19.892Z,1.60
2018-09-08T18:46:47.935Z,3.27
2018-09-08T18:49:16.054Z,3.50
2018-09-08T18:51:44.014Z,1.77
2018-09-08T18:54:12.457Z,1.33
2018-09-08T18:56:40.483Z,1.30
2018-09-08T18:59:08.182Z,1.87
2018-09-08T19:01:35.888Z,1.60
2018-09-08T19:04:03.701Z,1.47
2018-09-08T19:06:31.428Z,1.45
2018-09-08T19:08:59.152Z,1.35
2018-09-08T19:11:26.922Z,2.75
2018-09-08T19:13:54.809Z,1.55
2018-09-08T19:16:22.413Z,1.40
2018-09-08T19:18:50.136Z,1.50
2018-09-08T19:21:17.861Z,1.20
2018-09-08T19:23:48.616Z,1.02
2018-09-08T19:26:16.533Z,1.40
2018-09-08T19:28:46.841Z,1.10
2018-09-08T19:31:14.625Z,1.20
2018-09-08T19:33:42.409Z,1.62
2018-09-08T19:36:10.376Z,1.20
2018-09-08T19:38:38.127Z,1.12
2018-09-08T19:41:05.852Z,1.45
2018-09-08T19:43:33.958Z,1.40
2018-09-08T19:46:06.432Z,1.45
2018-09-08T19:48:34.242Z,1.60
2018-09-08T19:51:01.992Z,1.32
2018-09-08T19:54:02.902Z,1.90
2018-09-08T19:56:36.388Z,1.40
2018-09-08T19:59:04.923Z,1.62
2018-09-08T20:01:32.669Z,1.87
2018-09-08T20:04:00.486Z,1.30
2018-09-08T20:06:28.320Z,2.00
2018-09-08T20:08:56.084Z,1.80
2018-09-08T20:11:24.398Z,2.98
2018-09-08T20:13:52.747Z,2.45
2018-09-08T20:16:20.538Z,2.50
2018-09-08T20:18:48.482Z,2.30
2018-09-08T20:21:16.180Z,2.08
2018-09-08T20:23:43.877Z,2.30
2018-09-08T20:26:12.107Z,2.27
2018-09-08T20:28:40.452Z,2.42
2018-09-08T20:31:08.099Z,1.67
2018-09-08T20:33:35.750Z,1.90
2018-09-08T20:36:03.462Z,1.75
2018-09-08T20:38:31.386Z,1.70
2018-09-08T20:40:59.045Z,1.40
2018-09-08T20:43:27.315Z,1.57
2018-09-08T20:45:54.993Z,1.32
2018-09-08T20:48:22.672Z,1.30
2018-09-08T20:50:51.115Z,1.70
2018-09-08T20:53:18.790Z,1.30
2018-09-08T20:55:46.412Z,0.90
2018-09-08T20:58:14.134Z,1.00
2018-09-08T21:00:41.871Z,1.20
2018-09-08T21:03:09.661Z,1.25
2018-09-08T21:05:38.350Z,1.00
2018-09-08T21:08:06.280Z,1.32
2018-09-08T21:10:33.940Z,0.90
2018-09-08T21:13:01.623Z,1.52
2018-09-08T21:15:29.388Z,1.42
2018-09-08T21:17:57.046Z,1.43
2018-09-08T21:20:24.740Z,2.12
2018-09-08T21:22:52.482Z,1.17
2018-09-08T21:25:20.241Z,1.37
2018-09-08T21:27:48.141Z,1.40
2018-09-08T21:30:15.909Z,2.85
2018-09-08T21:32:43.652Z,2.52
2018-09-08T21:35:16.876Z,1.75
2018-09-08T21:37:44.624Z,2.22
2018-09-08T21:40:12.401Z,1.30
2018-09-08T21:42:40.076Z,1.65
2018-09-08T21:45:08.517Z,1.47
2018-09-08T21:47:36.164Z,1.37
2018-09-08T21:50:03.930Z,1.12
2018-09-08T21:52:31.677Z,1.22
2018-09-08T21:54:59.600Z,1.80
2018-09-08T21:57:27.325Z,1.50
2018-09-08T21:59:55.127Z,1.75
2018-09-08T22:02:22.782Z,1.57
2018-09-08T22:04:50.947Z,1.30
2018-09-08T22:07:18.696Z,1.45
2018-09-08T22:09:46.347Z,1.70
2018-09-08T22:12:14.194Z,1.20
2018-09-08T22:14:42.120Z,1.47
2018-09-08T22:17:10.188Z,1.20
2018-09-08T22:19:37.910Z,1.40
2018-09-08T22:22:06.311Z,1.10
2018-09-08T22:24:34.270Z,1.20
2018-09-08T22:27:02.013Z,1.20
2018-09-08T22:29:29.624Z,1.80
2018-09-08T22:31:57.472Z,1.30
2018-09-08T22:34:25.890Z,1.50
2018-09-08T22:36:53.601Z,1.20
2018-09-08T22:39:21.294Z,1.10
2018-09-08T22:41:49.117Z,1.40
2018-09-08T22:44:16.847Z,1.22
2018-09-08T22:46:44.715Z,1.70
2018-09-08T22:49:12.505Z,1.40
2018-09-08T22:51:40.596Z,1.05
2018-09-08T22:54:08.245Z,1.07
2018-09-08T22:56:39.997Z,1.50
2018-09-08T22:59:07.772Z,1.30
2018-09-08T23:01:36.421Z,1.12
2018-09-08T23:04:04.622Z,1.20
2018-09-08T23:06:32.290Z,1.00
2018-09-08T23:09:00.144Z,1.55
2018-09-08T23:11:27.774Z,1.30
2018-09-08T23:13:55.666Z,1.20
2018-09-08T23:16:23.345Z,1.30
2018-09-08T23:18:51.060Z,1.62
2018-09-08T23:21:18.656Z,1.02
2018-09-08T23:23:47.169Z,1.30
2018-09-08T23:26:15.089Z,1.25
2018-09-08T23:28:43.229Z,1.35
2018-09-08T23:31:11.434Z,1.32
2018-09-08T23:33:39.598Z,1.27
2018-09-08T23:36:07.628Z,1.37
2018-09-08T23:38:35.260Z,1.17
2018-09-08T23:41:04.135Z,1.10
2018-09-08T23:43:31.767Z,1.45
2018-09-08T23:45:59.754Z,1.40
2018-09-08T23:48:27.281Z,1.10
2018-09-08T23:50:54.815Z,1.25
2018-09-08T23:53:22.530Z,1.40
2018-09-08T23:55:50.752Z,1.65
2018-09-08T23:58:18.668Z,1.57
